sensor_id;sensor_type;location;lat;lon;timestamp;P1;durP1;ratioP1;P2;durP2;ratioP2
3971;SDS011;2000;47.572;14.202;2023-04-27T00:01:13;10.00;;;2.27;;
3971;SDS011;2000;47.572;14.202;2023-04-27T00:03:40;1.97;;;1.50;;
3971;SDS011;2000;47.572;14.202;2023-04-27T00:06:07;4.20;;;2.27;;
3971;SDS011;2000;47.572;14.202;2023-04-27T00:08:35;2.63;;;2.43;;
3971;SDS011;2000;47.572;14.202;2023-04-27T00:11:02;1.93;;;1.50;;
3971;SDS011;2000;47.572;14.202;2023-04-27T00:13:29;2.80;;;1.80;;
3971;SDS011;2000;47.572;14.202;2023-04-27T00:15:56;2.87;;;1.80;;
3971;SDS011;2000;47.572;14.202;2023-04-27T00:18:22;2.37;;;1.73;;
3971;SDS011;2000;47.572;14.202;2023-04-27T00:20:49;7.13;;;2.20;;
3971;SDS011;2000;47.572;14.202;2023-04-27T00:23:16;7.83;;;1.97;;
3971;SDS011;2000;47.572;14.202;2023-04-27T00:25:43;7.03;;;1.87;;
3971;SDS011;2000;47.572;14.202;2023-04-27T00:28:09;4.87;;;1.73;;
3971;SDS011;2000;47.572;14.202;2023-04-27T00:30:36;6.50;;;2.20;;
3971;SDS011;2000;47.572;14.202;2023-04-27T00:33:03;4.17;;;2.40;;
3971;SDS011;2000;47.572;14.202;2023-04-27T00:35:33;4.80;;;1.83;;
3971;SDS011;2000;47.572;14.202;2023-04-27T00:37:59;3.17;;;2.20;;
3971;SDS011;2000;47.572;14.202;2023-04-27T00:40:26;2.73;;;1.90;;
3971;SDS011;2000;47.572;14.202;2023-04-27T00:42:53;2.27;;;1.77;;
3971;SDS011;2000;47.572;14.202;2023-04-27T00:45:20;7.27;;;1.83;;
3971;SDS011;2000;47.572;14.202;2023-04-27T00:47:47;2.70;;;2.03;;
3971;SDS011;2000;47.572;14.202;2023-04-27T00:50:14;3.10;;;2.40;;
3971;SDS011;2000;47.572;14.202;2023-04-27T00:52:42;5.10;;;2.20;;
3971;SDS011;2000;47.572;14.202;2023-04-27T00:55:09;2.47;;;1.80;;
3971;SDS011;2000;47.572;14.202;2023-04-27T00:57:37;2.43;;;2.10;;
3971;SDS011;2000;47.572;14.202;2023-04-27T01:00:04;3.00;;;2.10;;
3971;SDS011;2000;47.572;14.202;2023-04-27T01:02:32;4.67;;;1.80;;
3971;SDS011;2000;47.572;14.202;2023-04-27T01:05:00;2.77;;;1.57;;
3971;SDS011;2000;47.572;14.202;2023-04-27T01:07:28;3.13;;;1.83;;
3971;SDS011;2000;47.572;14.202;2023-04-27T01:09:55;3.80;;;1.80;;
3971;SDS011;2000;47.572;14.202;2023-04-27T01:12:21;3.47;;;2.10;;
3971;SDS011;2000;47.572;14.202;2023-04-27T01:14:48;2.33;;;2.07;;
3971;SDS011;2000;47.572;14.202;2023-04-27T01:17:15;3.90;;;2.80;;
3971;SDS011;2000;47.572;14.202;2023-04-27T01:19:43;2.23;;;2.03;;
3971;SDS011;2000;47.572;14.202;2023-04-27T01:22:10;3.37;;;1.70;;
3971;SDS011;2000;47.572;14.202;2023-04-27T01:24:37;5.60;;;1.63;;
3971;SDS011;2000;47.572;14.202;2023-04-27T01:27:04;5.43;;;1.60;;
3971;SDS011;2000;47.572;14.202;2023-04-27T01:29:31;4.23;;;2.83;;
3971;SDS011;2000;47.572;14.202;2023-04-27T01:31:58;5.20;;;2.70;;
3971;SDS011;2000;47.572;14.202;2023-04-27T01:34:24;1.90;;;1.70;;
3971;SDS011;2000;47.572;14.202;2023-04-27T01:36:52;3.13;;;2.00;;
3971;SDS011;2000;47.572;14.202;2023-04-27T01:39:18;2.37;;;2.20;;
3971;SDS011;2000;47.572;14.202;2023-04-27T01:41:45;2.37;;;2.17;;
3971;SDS011;2000;47.572;14.202;2023-04-27T01:44:12;1.90;;;1.80;;
3971;SDS011;2000;47.572;14.202;2023-04-27T01:46:38;3.03;;;1.70;;
3971;SDS011;2000;47.572;14.202;2023-04-27T01:49:06;2.13;;;1.90;;
3971;SDS011;2000;47.572;14.202;2023-04-27T01:51:33;4.23;;;2.00;;
3971;SDS011;2000;47.572;14.202;2023-04-27T01:54:00;5.97;;;2.10;;
3971;SDS011;2000;47.572;14.202;2023-04-27T01:56:26;2.30;;;1.63;;
3971;SDS011;2000;47.572;14.202;2023-04-27T01:58:53;2.73;;;1.77;;
3971;SDS011;2000;47.572;14.202;2023-04-27T02:01:20;3.23;;;2.40;;
3971;SDS011;2000;47.572;14.202;2023-04-27T02:03:47;2.23;;;2.13;;
3971;SDS011;2000;47.572;14.202;2023-04-27T02:06:14;2.60;;;2.40;;
3971;SDS011;2000;47.572;14.202;2023-04-27T02:08:41;3.47;;;1.73;;
3971;SDS011;2000;47.572;14.202;2023-04-27T02:11:08;2.20;;;2.00;;
3971;SDS011;2000;47.572;14.202;2023-04-27T02:13:35;2.83;;;2.20;;
3971;SDS011;2000;47.572;14.202;2023-04-27T02:16:01;5.10;;;2.20;;
3971;SDS011;2000;47.572;14.202;2023-04-27T02:18:30;4.07;;;1.77;;
3971;SDS011;2000;47.572;14.202;2023-04-27T02:20:58;4.20;;;1.83;;
3971;SDS011;2000;47.572;14.202;2023-04-27T02:23:26;5.07;;;1.83;;
3971;SDS011;2000;47.572;14.202;2023-04-27T02:25:52;6.50;;;2.57;;
3971;SDS011;2000;47.572;14.202;2023-04-27T02:28:19;5.40;;;2.50;;
3971;SDS011;2000;47.572;14.202;2023-04-27T02:30:46;11.30;;;1.77;;
3971;SDS011;2000;47.572;14.202;2023-04-27T02:33:13;3.80;;;2.03;;
3971;SDS011;2000;47.572;14.202;2023-04-27T02:35:40;3.40;;;1.50;;
3971;SDS011;2000;47.572;14.202;2023-04-27T02:38:06;3.27;;;1.90;;
3971;SDS011;2000;47.572;14.202;2023-04-27T02:40:33;6.57;;;2.53;;
3971;SDS011;2000;47.572;14.202;2023-04-27T02:43:00;1.90;;;1.70;;
3971;SDS011;2000;47.572;14.202;2023-04-27T02:45:27;4.03;;;1.90;;
3971;SDS011;2000;47.572;14.202;2023-04-27T02:47:54;7.30;;;2.10;;
3971;SDS011;2000;47.572;14.202;2023-04-27T02:50:21;2.50;;;2.20;;
3971;SDS011;2000;47.572;14.202;2023-04-27T02:52:48;3.47;;;2.23;;
3971;SDS011;2000;47.572;14.202;2023-04-27T02:55:15;2.80;;;2.13;;
3971;SDS011;2000;47.572;14.202;2023-04-27T02:57:42;4.67;;;2.13;;
3971;SDS011;2000;47.572;14.202;2023-04-27T03:00:10;4.93;;;2.20;;
3971;SDS011;2000;47.572;14.202;2023-04-27T03:02:37;4.73;;;2.23;;
3971;SDS011;2000;47.572;14.202;2023-04-27T03:05:04;4.87;;;2.50;;
3971;SDS011;2000;47.572;14.202;2023-04-27T03:07:32;4.30;;;2.13;;
3971;SDS011;2000;47.572;14.202;2023-04-27T03:09:58;2.83;;;2.07;;
3971;SDS011;2000;47.572;14.202;2023-04-27T03:12:25;5.07;;;2.50;;
3971;SDS011;2000;47.572;14.202;2023-04-27T03:14:52;4.20;;;2.53;;
3971;SDS011;2000;47.572;14.202;2023-04-27T03:17:19;2.10;;;1.67;;
3971;SDS011;2000;47.572;14.202;2023-04-27T03:19:46;4.60;;;2.43;;
3971;SDS011;2000;47.572;14.202;2023-04-27T03:22:14;2.37;;;1.60;;
3971;SDS011;2000;47.572;14.202;2023-04-27T03:24:41;5.43;;;2.43;;
3971;SDS011;2000;47.572;14.202;2023-04-27T03:27:08;3.90;;;2.57;;
3971;SDS011;2000;47.572;14.202;2023-04-27T03:29:35;6.43;;;2.43;;
3971;SDS011;2000;47.572;14.202;2023-04-27T03:32:02;3.97;;;3.00;;
3971;SDS011;2000;47.572;14.202;2023-04-27T03:34:29;8.73;;;2.40;;
3971;SDS011;2000;47.572;14.202;2023-04-27T03:36:57;7.70;;;2.70;;
3971;SDS011;2000;47.572;14.202;2023-04-27T03:39:23;7.90;;;3.90;;
3971;SDS011;2000;47.572;14.202;2023-04-27T03:41:50;3.13;;;1.73;;
3971;SDS011;2000;47.572;14.202;2023-04-27T03:44:17;2.23;;;2.03;;
3971;SDS011;2000;47.572;14.202;2023-04-27T03:46:44;4.00;;;3.00;;
3971;SDS011;2000;47.572;14.202;2023-04-27T03:49:10;3.13;;;1.70;;
3971;SDS011;2000;47.572;14.202;2023-04-27T03:51:37;3.77;;;2.27;;
3971;SDS011;2000;47.572;14.202;2023-04-27T03:54:07;2.67;;;2.20;;
3971;SDS011;2000;47.572;14.202;2023-04-27T03:56:35;5.50;;;2.27;;
3971;SDS011;2000;47.572;14.202;2023-04-27T03:59:03;3.67;;;2.47;;
3971;SDS011;2000;47.572;14.202;2023-04-27T04:01:30;6.53;;;2.40;;
3971;SDS011;2000;47.572;14.202;2023-04-27T04:03:57;2.23;;;2.03;;
3971;SDS011;2000;47.572;14.202;2023-04-27T04:06:24;3.20;;;2.17;;
3971;SDS011;2000;47.572;14.202;2023-04-27T04:08:51;6.27;;;2.30;;
3971;SDS011;2000;47.572;14.202;2023-04-27T04:11:18;4.57;;;2.47;;
3971;SDS011;2000;47.572;14.202;2023-04-27T04:13:44;4.13;;;2.87;;
3971;SDS011;2000;47.572;14.202;2023-04-27T04:16:12;11.50;;;2.73;;
3971;SDS011;2000;47.572;14.202;2023-04-27T04:18:39;2.07;;;1.87;;
3971;SDS011;2000;47.572;14.202;2023-04-27T04:21:07;4.43;;;2.50;;
3971;SDS011;2000;47.572;14.202;2023-04-27T04:23:34;5.23;;;2.63;;
3971;SDS011;2000;47.572;14.202;2023-04-27T04:26:03;6.20;;;2.30;;
3971;SDS011;2000;47.572;14.202;2023-04-27T04:28:30;3.77;;;2.23;;
3971;SDS011;2000;47.572;14.202;2023-04-27T04:30:56;4.00;;;2.13;;
3971;SDS011;2000;47.572;14.202;2023-04-27T04:33:24;7.90;;;2.60;;
3971;SDS011;2000;47.572;14.202;2023-04-27T04:35:51;3.90;;;2.00;;
3971;SDS011;2000;47.572;14.202;2023-04-27T04:38:19;3.70;;;2.40;;
3971;SDS011;2000;47.572;14.202;2023-04-27T04:40:46;4.10;;;2.53;;
3971;SDS011;2000;47.572;14.202;2023-04-27T04:43:13;2.90;;;2.07;;
3971;SDS011;2000;47.572;14.202;2023-04-27T04:45:40;12.07;;;2.67;;
3971;SDS011;2000;47.572;14.202;2023-04-27T04:48:08;2.57;;;2.37;;
3971;SDS011;2000;47.572;14.202;2023-04-27T04:50:35;5.50;;;2.67;;
3971;SDS011;2000;47.572;14.202;2023-04-27T04:53:02;4.10;;;1.80;;
3971;SDS011;2000;47.572;14.202;2023-04-27T04:55:29;5.00;;;1.50;;
3971;SDS011;2000;47.572;14.202;2023-04-27T04:57:55;5.90;;;2.53;;
3971;SDS011;2000;47.572;14.202;2023-04-27T05:00:22;3.03;;;2.37;;
3971;SDS011;2000;47.572;14.202;2023-04-27T05:02:49;2.50;;;2.10;;
3971;SDS011;2000;47.572;14.202;2023-04-27T05:05:17;5.70;;;1.90;;
3971;SDS011;2000;47.572;14.202;2023-04-27T05:07:44;6.63;;;2.57;;
3971;SDS011;2000;47.572;14.202;2023-04-27T05:10:10;5.47;;;2.27;;
3971;SDS011;2000;47.572;14.202;2023-04-27T05:12:37;5.97;;;2.80;;
3971;SDS011;2000;47.572;14.202;2023-04-27T05:15:04;3.20;;;2.83;;
3971;SDS011;2000;47.572;14.202;2023-04-27T05:17:31;12.50;;;3.63;;
3971;SDS011;2000;47.572;14.202;2023-04-27T05:19:58;12.03;;;2.83;;
3971;SDS011;2000;47.572;14.202;2023-04-27T05:22:26;4.30;;;2.37;;
3971;SDS011;2000;47.572;14.202;2023-04-27T05:24:52;8.63;;;4.40;;
3971;SDS011;2000;47.572;14.202;2023-04-27T05:27:19;10.70;;;4.47;;
3971;SDS011;2000;47.572;14.202;2023-04-27T05:29:46;7.80;;;3.60;;
3971;SDS011;2000;47.572;14.202;2023-04-27T05:32:13;9.23;;;4.07;;
3971;SDS011;2000;47.572;14.202;2023-04-27T05:34:39;3.97;;;3.47;;
3971;SDS011;2000;47.572;14.202;2023-04-27T05:37:09;3.57;;;3.23;;
3971;SDS011;2000;47.572;14.202;2023-04-27T05:39:35;6.83;;;4.10;;
3971;SDS011;2000;47.572;14.202;2023-04-27T05:42:02;7.33;;;3.47;;
3971;SDS011;2000;47.572;14.202;2023-04-27T05:44:29;18.63;;;4.00;;
3971;SDS011;2000;47.572;14.202;2023-04-27T05:46:56;5.63;;;4.00;;
3971;SDS011;2000;47.572;14.202;2023-04-27T05:49:23;6.70;;;4.20;;
3971;SDS011;2000;47.572;14.202;2023-04-27T05:51:50;5.80;;;5.20;;
3971;SDS011;2000;47.572;14.202;2023-04-27T05:54:17;6.70;;;5.57;;
3971;SDS011;2000;47.572;14.202;2023-04-27T05:56:43;5.77;;;4.33;;
3971;SDS011;2000;47.572;14.202;2023-04-27T05:59:10;7.23;;;4.20;;
3971;SDS011;2000;47.572;14.202;2023-04-27T06:01:38;4.87;;;3.33;;
3971;SDS011;2000;47.572;14.202;2023-04-27T06:04:04;9.73;;;4.47;;
3971;SDS011;2000;47.572;14.202;2023-04-27T06:06:32;7.83;;;4.10;;
3971;SDS011;2000;47.572;14.202;2023-04-27T06:09:00;6.20;;;3.20;;
3971;SDS011;2000;47.572;14.202;2023-04-27T06:11:27;11.23;;;4.07;;
3971;SDS011;2000;47.572;14.202;2023-04-27T06:13:54;8.57;;;3.50;;
3971;SDS011;2000;47.572;14.202;2023-04-27T06:16:21;5.90;;;3.97;;
3971;SDS011;2000;47.572;14.202;2023-04-27T06:18:50;8.90;;;3.70;;
3971;SDS011;2000;47.572;14.202;2023-04-27T06:21:17;7.97;;;3.60;;
3971;SDS011;2000;47.572;14.202;2023-04-27T06:23:44;11.63;;;4.37;;
3971;SDS011;2000;47.572;14.202;2023-04-27T06:26:11;7.30;;;3.97;;
3971;SDS011;2000;47.572;14.202;2023-04-27T06:28:37;7.33;;;4.40;;
3971;SDS011;2000;47.572;14.202;2023-04-27T06:31:04;5.23;;;3.87;;
3971;SDS011;2000;47.572;14.202;2023-04-27T06:33:32;6.67;;;4.00;;
3971;SDS011;2000;47.572;14.202;2023-04-27T06:35:59;8.60;;;3.93;;
3971;SDS011;2000;47.572;14.202;2023-04-27T06:38:26;10.60;;;3.90;;
3971;SDS011;2000;47.572;14.202;2023-04-27T06:40:53;4.33;;;3.63;;
3971;SDS011;2000;47.572;14.202;2023-04-27T06:43:20;5.60;;;3.53;;
3971;SDS011;2000;47.572;14.202;2023-04-27T06:45:48;9.33;;;4.47;;
3971;SDS011;2000;47.572;14.202;2023-04-27T06:48:14;4.93;;;3.70;;
3971;SDS011;2000;47.572;14.202;2023-04-27T06:50:42;9.70;;;4.33;;
3971;SDS011;2000;47.572;14.202;2023-04-27T06:53:09;6.47;;;2.97;;
3971;SDS011;2000;47.572;14.202;2023-04-27T06:55:36;8.70;;;3.30;;
3971;SDS011;2000;47.572;14.202;2023-04-27T06:58:03;6.93;;;3.37;;
3971;SDS011;2000;47.572;14.202;2023-04-27T07:00:30;8.30;;;2.90;;
3971;SDS011;2000;47.572;14.202;2023-04-27T07:02:57;3.93;;;3.17;;
3971;SDS011;2000;47.572;14.202;2023-04-27T07:05:24;5.10;;;4.00;;
3971;SDS011;2000;47.572;14.202;2023-04-27T07:07:51;4.00;;;3.13;;
3971;SDS011;2000;47.572;14.202;2023-04-27T07:10:18;10.30;;;3.87;;
3971;SDS011;2000;47.572;14.202;2023-04-27T07:12:45;4.80;;;3.40;;
3971;SDS011;2000;47.572;14.202;2023-04-27T07:15:12;3.00;;;2.80;;
3971;SDS011;2000;47.572;14.202;2023-04-27T07:17:38;5.30;;;4.17;;
3971;SDS011;2000;47.572;14.202;2023-04-27T07:20:06;8.23;;;4.50;;
3971;SDS011;2000;47.572;14.202;2023-04-27T07:22:34;11.00;;;3.10;;
3971;SDS011;2000;47.572;14.202;2023-04-27T07:25:00;5.63;;;3.80;;
3971;SDS011;2000;47.572;14.202;2023-04-27T07:27:27;8.20;;;3.83;;
3971;SDS011;2000;47.572;14.202;2023-04-27T07:29:54;8.33;;;4.03;;
3971;SDS011;2000;47.572;14.202;2023-04-27T07:32:21;7.70;;;4.00;;
3971;SDS011;2000;47.572;14.202;2023-04-27T07:34:48;6.30;;;3.43;;
3971;SDS011;2000;47.572;14.202;2023-04-27T07:37:19;3.37;;;3.00;;
3971;SDS011;2000;47.572;14.202;2023-04-27T07:39:47;10.90;;;3.93;;
3971;SDS011;2000;47.572;14.202;2023-04-27T07:42:15;9.23;;;3.77;;
3971;SDS011;2000;47.572;14.202;2023-04-27T07:44:42;8.33;;;2.47;;
3971;SDS011;2000;47.572;14.202;2023-04-27T07:47:09;3.80;;;3.30;;
3971;SDS011;2000;47.572;14.202;2023-04-27T07:49:36;1.63;;;1.53;;
3971;SDS011;2000;47.572;14.202;2023-04-27T07:52:03;2.13;;;2.00;;
3971;SDS011;2000;47.572;14.202;2023-04-27T07:54:30;3.03;;;2.37;;
3971;SDS011;2000;47.572;14.202;2023-04-27T07:56:57;5.67;;;2.10;;
3971;SDS011;2000;47.572;14.202;2023-04-27T07:59:27;3.93;;;1.93;;
3971;SDS011;2000;47.572;14.202;2023-04-27T08:01:55;6.53;;;2.47;;
3971;SDS011;2000;47.572;14.202;2023-04-27T08:04:41;2.73;;;2.00;;
3971;SDS011;2000;47.572;14.202;2023-04-27T08:07:08;4.47;;;2.13;;
3971;SDS011;2000;47.572;14.202;2023-04-27T08:09:36;5.13;;;2.60;;
3971;SDS011;2000;47.572;14.202;2023-04-27T08:12:03;6.50;;;2.70;;
3971;SDS011;2000;47.572;14.202;2023-04-27T08:14:30;6.30;;;3.07;;
3971;SDS011;2000;47.572;14.202;2023-04-27T08:16:59;3.80;;;2.50;;
3971;SDS011;2000;47.572;14.202;2023-04-27T08:19:26;4.23;;;2.60;;
3971;SDS011;2000;47.572;14.202;2023-04-27T08:21:53;5.53;;;3.20;;
3971;SDS011;2000;47.572;14.202;2023-04-27T08:24:20;3.77;;;2.83;;
3971;SDS011;2000;47.572;14.202;2023-04-27T08:26:47;4.03;;;2.47;;
3971;SDS011;2000;47.572;14.202;2023-04-27T08:29:13;3.03;;;2.73;;
3971;SDS011;2000;47.572;14.202;2023-04-27T08:31:53;8.07;;;2.57;;
3971;SDS011;2000;47.572;14.202;2023-04-27T08:34:22;3.37;;;2.70;;
3971;SDS011;2000;47.572;14.202;2023-04-27T08:36:49;6.70;;;2.50;;
3971;SDS011;2000;47.572;14.202;2023-04-27T08:39:16;5.90;;;2.80;;
3971;SDS011;2000;47.572;14.202;2023-04-27T08:41:43;3.67;;;2.77;;
3971;SDS011;2000;47.572;14.202;2023-04-27T08:44:11;7.37;;;2.57;;
3971;SDS011;2000;47.572;14.202;2023-04-27T08:46:38;4.90;;;3.13;;
3971;SDS011;2000;47.572;14.202;2023-04-27T08:49:05;4.43;;;2.40;;
3971;SDS011;2000;47.572;14.202;2023-04-27T08:51:35;4.90;;;2.87;;
3971;SDS011;2000;47.572;14.202;2023-04-27T08:54:02;10.30;;;5.17;;
3971;SDS011;2000;47.572;14.202;2023-04-27T08:56:29;8.20;;;2.50;;
3971;SDS011;2000;47.572;14.202;2023-04-27T08:58:56;4.67;;;2.60;;
3971;SDS011;2000;47.572;14.202;2023-04-27T09:01:24;9.53;;;3.53;;
3971;SDS011;2000;47.572;14.202;2023-04-27T09:03:56;5.30;;;2.57;;
3971;SDS011;2000;47.572;14.202;2023-04-27T09:06:33;3.73;;;3.20;;
3971;SDS011;2000;47.572;14.202;2023-04-27T09:09:02;5.57;;;4.00;;
3971;SDS011;2000;47.572;14.202;2023-04-27T09:11:33;9.70;;;3.00;;
3971;SDS011;2000;47.572;14.202;2023-04-27T09:14:02;4.40;;;2.60;;
3971;SDS011;2000;47.572;14.202;2023-04-27T09:16:30;8.63;;;3.10;;
3971;SDS011;2000;47.572;14.202;2023-04-27T09:18:57;8.80;;;3.07;;
3971;SDS011;2000;47.572;14.202;2023-04-27T09:21:27;2.60;;;2.37;;
3971;SDS011;2000;47.572;14.202;2023-04-27T09:23:54;6.53;;;3.10;;
3971;SDS011;2000;47.572;14.202;2023-04-27T09:26:22;9.20;;;2.77;;
3971;SDS011;2000;47.572;14.202;2023-04-27T09:28:51;6.17;;;2.50;;
3971;SDS011;2000;47.572;14.202;2023-04-27T09:31:19;6.77;;;3.60;;
3971;SDS011;2000;47.572;14.202;2023-04-27T09:33:52;6.53;;;2.60;;
3971;SDS011;2000;47.572;14.202;2023-04-27T09:36:20;11.50;;;3.07;;
3971;SDS011;2000;47.572;14.202;2023-04-27T09:38:48;5.97;;;2.57;;
3971;SDS011;2000;47.572;14.202;2023-04-27T09:41:16;8.97;;;3.63;;
3971;SDS011;2000;47.572;14.202;2023-04-27T09:43:43;5.93;;;2.50;;
3971;SDS011;2000;47.572;14.202;2023-04-27T09:46:14;5.13;;;3.17;;
3971;SDS011;2000;47.572;14.202;2023-04-27T09:48:41;8.27;;;3.27;;
3971;SDS011;2000;47.572;14.202;2023-04-27T09:51:08;5.30;;;3.67;;
3971;SDS011;2000;47.572;14.202;2023-04-27T09:53:36;7.10;;;3.30;;
3971;SDS011;2000;47.572;14.202;2023-04-27T09:56:10;5.17;;;2.50;;
3971;SDS011;2000;47.572;14.202;2023-04-27T10:01:49;6.13;;;3.30;;
3971;SDS011;2000;47.572;14.202;2023-04-27T10:07:14;5.00;;;2.17;;
3971;SDS011;2000;47.572;14.202;2023-04-27T10:09:44;7.50;;;2.07;;
3971;SDS011;2000;47.572;14.202;2023-04-27T10:12:15;7.43;;;2.00;;
3971;SDS011;2000;47.572;14.202;2023-04-27T10:15:27;2.40;;;1.97;;
3971;SDS011;2000;47.572;14.202;2023-04-27T10:17:50;3.10;;;2.67;;
3971;SDS011;2000;47.572;14.202;2023-04-27T10:20:27;2.27;;;2.10;;
3971;SDS011;2000;47.572;14.202;2023-04-27T10:22:55;3.20;;;2.00;;
3971;SDS011;2000;47.572;14.202;2023-04-27T10:25:24;2.13;;;1.93;;
3971;SDS011;2000;47.572;14.202;2023-04-27T10:28:00;4.80;;;3.03;;
3971;SDS011;2000;47.572;14.202;2023-04-27T10:30:34;2.57;;;2.10;;
3971;SDS011;2000;47.572;14.202;2023-04-27T10:33:09;2.93;;;2.30;;
3971;SDS011;2000;47.572;14.202;2023-04-27T10:35:37;7.43;;;2.30;;
3971;SDS011;2000;47.572;14.202;2023-04-27T10:38:17;7.43;;;2.60;;
3971;SDS011;2000;47.572;14.202;2023-04-27T10:40:58;6.80;;;2.57;;
3971;SDS011;2000;47.572;14.202;2023-04-27T10:43:28;5.40;;;3.30;;
3971;SDS011;2000;47.572;14.202;2023-04-27T10:46:08;3.83;;;2.77;;
3971;SDS011;2000;47.572;14.202;2023-04-27T10:48:40;4.37;;;2.70;;
3971;SDS011;2000;47.572;14.202;2023-04-27T10:51:08;3.33;;;1.63;;
3971;SDS011;2000;47.572;14.202;2023-04-27T10:53:36;4.90;;;2.67;;
3971;SDS011;2000;47.572;14.202;2023-04-27T10:56:03;6.43;;;2.80;;
3971;SDS011;2000;47.572;14.202;2023-04-27T10:58:32;7.40;;;3.10;;
3971;SDS011;2000;47.572;14.202;2023-04-27T11:01:07;12.73;;;3.47;;
3971;SDS011;2000;47.572;14.202;2023-04-27T11:03:34;8.30;;;2.73;;
3971;SDS011;2000;47.572;14.202;2023-04-27T11:06:02;6.43;;;2.40;;
3971;SDS011;2000;47.572;14.202;2023-04-27T11:08:30;4.67;;;2.40;;
3971;SDS011;2000;47.572;14.202;2023-04-27T11:10:59;3.07;;;2.70;;
3971;SDS011;2000;47.572;14.202;2023-04-27T11:13:27;5.40;;;3.07;;
3971;SDS011;2000;47.572;14.202;2023-04-27T11:15:54;5.23;;;2.60;;
3971;SDS011;2000;47.572;14.202;2023-04-27T11:18:24;7.10;;;2.63;;
3971;SDS011;2000;47.572;14.202;2023-04-27T11:20:52;6.50;;;2.83;;
3971;SDS011;2000;47.572;14.202;2023-04-27T11:23:24;4.73;;;2.03;;
3971;SDS011;2000;47.572;14.202;2023-04-27T11:25:52;5.00;;;2.43;;
3971;SDS011;2000;47.572;14.202;2023-04-27T11:28:19;11.20;;;3.10;;
3971;SDS011;2000;47.572;14.202;2023-04-27T11:30:56;9.60;;;2.70;;
3971;SDS011;2000;47.572;14.202;2023-04-27T11:33:24;5.40;;;2.37;;
3971;SDS011;2000;47.572;14.202;2023-04-27T11:35:52;2.47;;;2.03;;
3971;SDS011;2000;47.572;14.202;2023-04-27T11:38:19;6.17;;;2.20;;
3971;SDS011;2000;47.572;14.202;2023-04-27T11:41:00;6.70;;;1.90;;
3971;SDS011;2000;47.572;14.202;2023-04-27T11:43:30;2.20;;;2.00;;
3971;SDS011;2000;47.572;14.202;2023-04-27T11:45:57;3.53;;;2.20;;
3971;SDS011;2000;47.572;14.202;2023-04-27T11:48:28;2.10;;;1.90;;
3971;SDS011;2000;47.572;14.202;2023-04-27T11:50:56;3.40;;;1.80;;
3971;SDS011;2000;47.572;14.202;2023-04-27T11:53:28;3.57;;;1.67;;
3971;SDS011;2000;47.572;14.202;2023-04-27T11:55:57;6.37;;;2.13;;
3971;SDS011;2000;47.572;14.202;2023-04-27T11:58:26;2.40;;;2.13;;
3971;SDS011;2000;47.572;14.202;2023-04-27T12:00:55;2.17;;;1.67;;
3971;SDS011;2000;47.572;14.202;2023-04-27T12:03:23;4.40;;;2.37;;
3971;SDS011;2000;47.572;14.202;2023-04-27T12:05:51;4.73;;;1.90;;
3971;SDS011;2000;47.572;14.202;2023-04-27T12:08:18;8.00;;;3.90;;
3971;SDS011;2000;47.572;14.202;2023-04-27T12:10:46;6.13;;;2.47;;
3971;SDS011;2000;47.572;14.202;2023-04-27T12:13:13;11.07;;;2.47;;
3971;SDS011;2000;47.572;14.202;2023-04-27T12:15:40;4.80;;;1.73;;
3971;SDS011;2000;47.572;14.202;2023-04-27T12:18:07;4.63;;;2.10;;
3971;SDS011;2000;47.572;14.202;2023-04-27T12:20:35;5.40;;;2.10;;
3971;SDS011;2000;47.572;14.202;2023-04-27T12:23:02;5.07;;;1.73;;
3971;SDS011;2000;47.572;14.202;2023-04-27T12:25:28;3.43;;;1.67;;
3971;SDS011;2000;47.572;14.202;2023-04-27T12:27:55;3.27;;;1.50;;
3971;SDS011;2000;47.572;14.202;2023-04-27T12:30:23;6.30;;;2.03;;
3971;SDS011;2000;47.572;14.202;2023-04-27T12:32:49;2.50;;;1.47;;
3971;SDS011;2000;47.572;14.202;2023-04-27T12:35:16;2.43;;;1.50;;
3971;SDS011;2000;47.572;14.202;2023-04-27T12:37:43;2.43;;;1.43;;
3971;SDS011;2000;47.572;14.202;2023-04-27T12:40:10;3.63;;;1.40;;
3971;SDS011;2000;47.572;14.202;2023-04-27T12:42:38;3.50;;;1.10;;
3971;SDS011;2000;47.572;14.202;2023-04-27T12:45:05;6.60;;;1.97;;
3971;SDS011;2000;47.572;14.202;2023-04-27T12:47:33;3.47;;;1.30;;
3971;SDS011;2000;47.572;14.202;2023-04-27T12:50:03;4.37;;;1.50;;
3971;SDS011;2000;47.572;14.202;2023-04-27T12:52:31;3.60;;;2.23;;
3971;SDS011;2000;47.572;14.202;2023-04-27T12:54:57;10.73;;;1.53;;
3971;SDS011;2000;47.572;14.202;2023-04-27T12:57:24;3.03;;;1.40;;
3971;SDS011;2000;47.572;14.202;2023-04-27T12:59:51;2.97;;;1.20;;
3971;SDS011;2000;47.572;14.202;2023-04-27T13:02:18;3.97;;;1.70;;
3971;SDS011;2000;47.572;14.202;2023-04-27T13:04:45;4.07;;;2.00;;
3971;SDS011;2000;47.572;14.202;2023-04-27T13:07:12;2.00;;;1.50;;
3971;SDS011;2000;47.572;14.202;2023-04-27T13:09:39;3.63;;;1.57;;
3971;SDS011;2000;47.572;14.202;2023-04-27T13:12:07;1.93;;;1.30;;
3971;SDS011;2000;47.572;14.202;2023-04-27T13:14:33;1.90;;;1.20;;
3971;SDS011;2000;47.572;14.202;2023-04-27T13:17:00;4.73;;;1.47;;
3971;SDS011;2000;47.572;14.202;2023-04-27T13:19:27;2.70;;;0.70;;
3971;SDS011;2000;47.572;14.202;2023-04-27T13:21:54;3.17;;;1.30;;
3971;SDS011;2000;47.572;14.202;2023-04-27T13:24:21;1.90;;;0.93;;
3971;SDS011;2000;47.572;14.202;2023-04-27T13:26:49;5.33;;;1.33;;
3971;SDS011;2000;47.572;14.202;2023-04-27T13:29:16;2.53;;;1.23;;
3971;SDS011;2000;47.572;14.202;2023-04-27T13:31:43;4.50;;;1.93;;
3971;SDS011;2000;47.572;14.202;2023-04-27T13:34:10;2.70;;;1.60;;
3971;SDS011;2000;47.572;14.202;2023-04-27T13:36:37;8.13;;;1.63;;
3971;SDS011;2000;47.572;14.202;2023-04-27T13:39:04;3.63;;;1.37;;
3971;SDS011;2000;47.572;14.202;2023-04-27T13:41:32;1.63;;;1.53;;
3971;SDS011;2000;47.572;14.202;2023-04-27T13:44:00;1.43;;;1.00;;
3971;SDS011;2000;47.572;14.202;2023-04-27T13:46:27;4.10;;;1.00;;
3971;SDS011;2000;47.572;14.202;2023-04-27T13:48:54;3.80;;;1.10;;
3971;SDS011;2000;47.572;14.202;2023-04-27T13:51:22;2.83;;;1.43;;
3971;SDS011;2000;47.572;14.202;2023-04-27T13:53:49;2.97;;;1.00;;
3971;SDS011;2000;47.572;14.202;2023-04-27T13:56:15;3.60;;;1.07;;
3971;SDS011;2000;47.572;14.202;2023-04-27T13:58:42;3.70;;;1.30;;
3971;SDS011;2000;47.572;14.202;2023-04-27T14:01:09;13.53;;;1.87;;
3971;SDS011;2000;47.572;14.202;2023-04-27T14:03:36;2.93;;;1.07;;
3971;SDS011;2000;47.572;14.202;2023-04-27T14:06:06;6.47;;;1.80;;
3971;SDS011;2000;47.572;14.202;2023-04-27T14:08:33;2.50;;;1.93;;
3971;SDS011;2000;47.572;14.202;2023-04-27T14:11:00;5.57;;;1.87;;
3971;SDS011;2000;47.572;14.202;2023-04-27T14:13:26;2.83;;;1.50;;
3971;SDS011;2000;47.572;14.202;2023-04-27T14:15:53;1.63;;;1.17;;
3971;SDS011;2000;47.572;14.202;2023-04-27T14:18:20;4.60;;;1.60;;
3971;SDS011;2000;47.572;14.202;2023-04-27T14:20:56;3.73;;;1.83;;
3971;SDS011;2000;47.572;14.202;2023-04-27T14:23:23;3.80;;;1.70;;
3971;SDS011;2000;47.572;14.202;2023-04-27T14:25:50;4.80;;;1.53;;
3971;SDS011;2000;47.572;14.202;2023-04-27T14:28:17;8.10;;;1.97;;
3971;SDS011;2000;47.572;14.202;2023-04-27T14:30:43;7.73;;;2.60;;
3971;SDS011;2000;47.572;14.202;2023-04-27T14:33:10;5.67;;;1.20;;
3971;SDS011;2000;47.572;14.202;2023-04-27T14:35:37;1.33;;;1.00;;
3971;SDS011;2000;47.572;14.202;2023-04-27T14:38:04;4.37;;;1.13;;
3971;SDS011;2000;47.572;14.202;2023-04-27T14:40:31;1.50;;;1.20;;
3971;SDS011;2000;47.572;14.202;2023-04-27T14:42:58;3.70;;;1.47;;
3971;SDS011;2000;47.572;14.202;2023-04-27T14:45:25;3.40;;;1.30;;
3971;SDS011;2000;47.572;14.202;2023-04-27T14:48:05;3.80;;;1.13;;
3971;SDS011;2000;47.572;14.202;2023-04-27T14:50:32;9.00;;;1.43;;
3971;SDS011;2000;47.572;14.202;2023-04-27T14:52:58;9.00;;;1.90;;
3971;SDS011;2000;47.572;14.202;2023-04-27T14:55:25;4.33;;;1.80;;
3971;SDS011;2000;47.572;14.202;2023-04-27T14:57:53;5.63;;;1.17;;
3971;SDS011;2000;47.572;14.202;2023-04-27T15:00:19;2.70;;;1.00;;
3971;SDS011;2000;47.572;14.202;2023-04-27T15:02:46;7.53;;;1.23;;
3971;SDS011;2000;47.572;14.202;2023-04-27T15:05:13;3.10;;;1.60;;
3971;SDS011;2000;47.572;14.202;2023-04-27T15:07:40;10.53;;;4.50;;
3971;SDS011;2000;47.572;14.202;2023-04-27T15:10:07;1.87;;;1.43;;